Terminal Aerodrome Forecast
Issued by NWS Wakefield, VA

Home | Current Version | Previous Version | Text Only | Print | Product List | Glossary On
Versions: 1 2 3 4 5 6 7 8 9 10 11 12 13 14
560
FTUS41 KAKQ 280520
TAFRIC
TAF
KRIC 280520Z 2806/2906 19007KT P6SM BKN150
     FM280800 20005KT P6SM VCSH BKN100
     FM281200 21004KT P6SM VCSH BKN050
     FM281800 22008KT 6SM -SHRA BKN070
     FM282200 22009KT P6SM BKN100
     FM290200 30006KT P6SM BKN100=

USA.gov is the U.S. government's official web portal to all federal, state and local government web resources and services.